Silver Hannah — V7IB4 — position and weather

sailwx.info

Track history (hours):
 
Tides and Currents Weather Stations Pressure Air Temp Water Temp Dewpoint Dewpoint Depression Visibility Wind Speed Wind Dir Waves Ship Positions

Silver Hannah

Last reported at 2017-Oct-24 03:15 UTC. Time now 2017-Nov-23 09:20 UTC.
Position N 29°23' W 119°40'.
Warning: this ship's position is 30 days out of date.

Length 183 m; draft 11.3 m.

Type: Tanker. MMSI: 538005911.

Date/timePositionNaut miles runAvg speedWind from/ knotsBaromVisibWave heightAir tempDewpointWater temp
2017-Oct-24 03:15N 29°23' W 119°40'413.2
2017-Oct-24 02:54N 29°27' W 119°42'613.1
2017-Oct-24 02:25N 29°33' W 119°45'11612.7
2017-Oct-23 17:18N 31°21' W 120°33'3513.0
2017-Oct-23 14:39N 31°53' W 120°47'212.7
2017-Oct-23 14:30N 31°55' W 120°48'1813.3
2017-Oct-23 13:11N 32°11' W 120°55'213.2
2017-Oct-23 13:00N 32°14' W 120°56'713.4
2017-Oct-23 12:30N 32°20' W 120°59'713.1
2017-Oct-23 12:00N 32°26' W 121°02'612.9
2017-Oct-23 11:30N 32°32' W 121°05'713.3
2017-Oct-23 11:00N 32°38' W 121°07'713.1
2017-Oct-23 10:30N 32°44' W 121°10'713.0
2017-Oct-23 10:00N 32°50' W 121°13'713.4
2017-Oct-23 09:30N 32°57' W 121°16'713.5
2017-Oct-23 09:00N 33°03' W 121°19'713.2
2017-Oct-23 08:30N 33°09' W 121°21'713.2
2017-Oct-23 08:00N 33°15' W 121°24'713.3
2017-Oct-23 07:30N 33°22' W 121°27'713.5
2017-Oct-23 07:00N 33°28' W 121°30'713.3
2017-Oct-23 06:30N 33°34' W 121°33'713.2
2017-Oct-23 06:00N 33°40' W 121°36'713.4
2017-Oct-23 05:30N 33°46' W 121°38'713.2
2017-Oct-23 05:00N 33°53' W 121°41'613.1
2017-Oct-23 04:30N 33°59' W 121°44'713.1
2017-Oct-23 04:00N 34°05' W 121°47'712.8
2017-Oct-23 03:28N 34°11' W 121°50'612.6
2017-Oct-23 03:00N 34°17' W 121°52'713.2
2017-Oct-23 02:27N 34°24' W 121°56'613.4
2017-Oct-23 02:00N 34°29' W 121°58'713.2
2017-Oct-23 01:30N 34°35' W 122°01'713.4
2017-Oct-23 01:00N 34°42' W 122°04'713.5
2017-Oct-23 00:31N 34°48' W 122°07'713.3
2017-Oct-23 00:00N 34°54' W 122°10'1213.1
2017-Oct-22 23:04N 35°06' W 122°15'113.3
2017-Oct-22 22:59N 35°07' W 122°16'913.1
2017-Oct-22 22:17N 35°15' W 122°19'313.0
2017-Oct-22 22:01N 35°19' W 122°21'713.1
2017-Oct-22 21:30N 35°25' W 122°24'1713.3
2017-Oct-22 20:14N 35°40' W 122°31'313.4
2017-Oct-22 20:00N 35°43' W 122°33'713.7
2017-Oct-22 19:30N 35°50' W 122°36'6613.0
2017-Oct-22 14:27N 36°55' W 122°43'612.8
2017-Oct-22 13:58N 37°01' W 122°44'613.4
2017-Oct-22 13:30N 37°08' W 122°43'713.3
2017-Oct-22 13:00N 37°14' W 122°44'713.4
2017-Oct-22 12:30N 37°21' W 122°44'713.3
2017-Oct-22 12:00N 37°28' W 122°44'713.5
2017-Oct-22 11:30N 37°34' W 122°44'713.1
2017-Oct-22 11:00N 37°41' W 122°43'611.2
2017-Oct-22 10:30N 37°46' W 122°40'5 9.5
2017-Oct-22 10:00N 37°47' W 122°34'611.7
2017-Oct-22 09:30N 37°50' W 122°28'4 8.4
2017-Oct-22 09:00N 37°48' W 122°23'3 5.4
2017-Oct-22 08:30N 37°46' W 122°21'0 0.0
2017-Oct-22 07:59N 37°46' W 122°21'0 0.0
2017-Oct-22 07:29N 37°46' W 122°21'0 0.0
2017-Oct-22 06:59N 37°46' W 122°21'0 0.0
2017-Oct-22 06:29N 37°46' W 122°21'0 0.0
2017-Oct-22 05:59N 37°46' W 122°21'0 0.0
2017-Oct-22 05:29N 37°46' W 122°21'0 0.0
2017-Oct-22 04:59N 37°46' W 122°21'0 0.0
2017-Oct-22 04:29N 37°46' W 122°21'0 0.3
2017-Oct-22 03:59N 37°46' W 122°21'0 0.1
2017-Oct-22 03:29N 37°46' W 122°21'0 0.1
2017-Oct-22 02:59N 37°46' W 122°21'0 0.0
2017-Oct-22 02:29N 37°46' W 122°21'0 0.0
2017-Oct-22 01:59N 37°46' W 122°21'0 0.0
2017-Oct-22 01:29N 37°46' W 122°21'0 0.0
2017-Oct-22 00:59N 37°46' W 122°21'0 0.0
2017-Oct-22 00:29N 37°46' W 122°21'0 0.2
2017-Oct-22 00:00N 37°46' W 122°21'3 5.6
2017-Oct-21 23:30N 37°49' W 122°23'510.9
2017-Oct-21 23:00N 37°53' W 122°26'611.3
2017-Oct-21 22:30N 37°59' W 122°26'5 9.9
2017-Oct-21 22:00N 38°02' W 122°21'4 8.9
2017-Oct-21 21:30N 38°04' W 122°16'5 8.8
2017-Oct-21 20:56N 38°02' W 122°10'4 7.7
2017-Oct-21 20:28N 38°03' W 122°05'0 0.0
2017-Oct-20 07:25N 38°03' W 122°05'2 2.2
2017-Oct-20 06:39N 38°02' W 122°07'1 6.8
2017-Oct-20 06:31N 38°02' W 122°08'3 6.7
2017-Oct-20 05:59N 38°04' W 122°12'3 5.4
2017-Oct-20 05:31N 38°04' W 122°16'3 6.5
2017-Oct-20 05:00N 38°03' W 122°20'4 8.3
2017-Oct-20 04:30N 38°01' W 122°24'510.7
2017-Oct-20 04:00N 37°56' W 122°27'510.0
2017-Oct-20 03:30N 37°51' W 122°25'4 7.3
2017-Oct-20 03:01N 37°49' W 122°28'510.1
2017-Oct-20 02:31N 37°47' W 122°34'510.9
2017-Oct-20 02:01N 37°46' W 122°41'5 9.4
2017-Oct-20 01:29N 37°46' W 122°47'510.2
2017-Oct-20 01:01N 37°49' W 122°52'510.2
2017-Oct-20 00:31N 37°51' W 122°58'510.4
2017-Oct-20 00:00N 37°54' W 123°04'610.4
2017-Oct-19 23:28N 37°57' W 123°10'510.3
2017-Oct-19 23:01N 38°00' W 123°14'611.7
2017-Oct-19 22:30N 38°05' W 123°19'4 8.5
2017-Oct-19 22:01N 38°08' W 123°22'0 0.8
2017-Oct-19 21:30N 38°08' W 123°22'0 0.6
2017-Oct-19 21:01N 38°09' W 123°22'0 0.7
2017-Oct-19 20:31N 38°09' W 123°23'0 0.5
2017-Oct-19 20:01N 38°08' W 123°23'0 0.5
2017-Oct-19 19:30N 38°09' W 123°23'0 0.7
2017-Oct-19 19:00N 38°09' W 123°24'0 0.8
2017-Oct-19 18:31N 38°09' W 123°24'0 0.5
2017-Oct-19 18:01N 38°09' W 123°25'0 0.3
2017-Oct-19 17:31N 38°09' W 123°25'0 1.0
2017-Oct-19 17:01N 38°08' W 123°25'2 3.2
2017-Oct-19 16:30N 38°09' W 123°27'1 3.0
2017-Oct-19 16:01N 38°08' W 123°26'1 2.6
2017-Oct-19 15:31N 38°08' W 123°25'2 4.3
2017-Oct-19 15:00N 38°10' W 123°25'713.1
2017-Oct-19 14:30N 38°15' W 123°30'4 7.1
2017-Oct-19 14:00N 38°18' W 123°33'5 9.5
2017-Oct-19 13:31N 38°22' W 123°37'713.1
2017-Oct-19 13:01N 38°27' W 123°42'713.3
2017-Oct-19 12:31N 38°32' W 123°47'713.3
2017-Oct-19 12:00N 38°37' W 123°53'2113.1
2017-Oct-19 10:23N 38°53' W 124°10'5813.2
2017-Oct-19 05:58N 39°43' W 124°50'31912.3
2017-Oct-18 04:07N 45°00' W 125°20'110.7
2017-Oct-18 04:00N 45°02' W 125°20'613.1
2017-Oct-18 03:30N 45°08' W 125°20'713.1
2017-Oct-18 03:00N 45°15' W 125°20'712.9
2017-Oct-18 02:30N 45°21' W 125°20'913.4
2017-Oct-18 01:51N 45°30' W 125°20'513.3
2017-Oct-18 01:30N 45°35' W 125°20'712.8
2017-Oct-18 00:55N 45°42' W 125°20'612.8
2017-Oct-18 00:30N 45°47' W 125°20'612.9
2017-Oct-18 00:00N 45°54' W 125°20'913.0
2017-Oct-17 23:18N 46°03' W 125°20'413.2
2017-Oct-17 23:01N 46°07' W 125°20'713.0
2017-Oct-17 22:31N 46°13' W 125°20'713.1
2017-Oct-17 22:00N 46°20' W 125°20'612.9
2017-Oct-17 21:31N 46°26' W 125°20'713.2
2017-Oct-17 21:00N 46°33' W 125°20'713.5
2017-Oct-17 20:30N 46°40' W 125°20'713.4
2017-Oct-17 20:00N 46°46' W 125°20'713.4
2017-Oct-17 19:29N 46°53' W 125°20'713.7
2017-Oct-17 19:00N 46°60' W 125°20'7613.2
2017-Oct-17 13:16N 48°15' W 125°12'313.1
2017-Oct-17 13:00N 48°19' W 125°11'712.4
2017-Oct-17 12:29N 48°25' W 125°08'511.2
2017-Oct-17 12:00N 48°29' W 125°03'510.5
2017-Oct-17 11:30N 48°31' W 124°55'612.4
2017-Oct-17 11:00N 48°31' W 124°46'612.6
2017-Oct-17 10:30N 48°29' W 124°37'613.0
2017-Oct-17 10:00N 48°26' W 124°28'613.0
2017-Oct-17 09:30N 48°24' W 124°19'713.0
2017-Oct-17 09:00N 48°21' W 124°10'612.7
2017-Oct-17 08:30N 48°19' W 124°02'713.4
2017-Oct-17 08:00N 48°17' W 123°52'712.8
2017-Oct-17 07:27N 48°16' W 123°41'612.9
2017-Oct-17 07:00N 48°15' W 123°33'611.2
2017-Oct-17 06:30N 48°20' W 123°27'510.2
2017-Oct-17 06:00N 48°23' W 123°21'510.0
2017-Oct-17 05:31N 48°24' W 123°14'713.8
2017-Oct-17 05:00N 48°31' W 123°13'815.5
2017-Oct-17 04:30N 48°39' W 123°15'612.9
2017-Oct-17 04:00N 48°44' W 123°09'713.9
2017-Oct-17 03:30N 48°48' W 123°01'714.9
2017-Oct-17 03:00N 48°54' W 123°08'815.2
2017-Oct-17 02:30N 48°59' W 123°17'714.1
2017-Oct-17 02:00N 49°05' W 123°23'714.4
2017-Oct-17 01:30N 49°12' W 123°22'713.4
2017-Oct-17 01:00N 49°18' W 123°17'5 9.9
2017-Oct-17 00:30N 49°19' W 123°10'4 8.4
2017-Oct-17 00:00N 49°18' W 123°04'3 6.3
2017-Oct-16 23:30N 49°18' W 122°59'1 1.5
2017-Oct-16 23:00N 49°18' W 122°58'0 0.5
2017-Oct-16 22:25N 49°17' W 122°58'0 0.0
2017-Oct-16 21:58N 49°17' W 122°58'0 0.0
2017-Oct-16 21:25N 49°17' W 122°58'0 0.0
2017-Oct-16 20:52N 49°17' W 122°58'0 0.0
2017-Oct-16 20:19N 49°17' W 122°58'0 0.0
2017-Oct-16 19:58N 49°17' W 122°58'0 0.0
2017-Oct-16 19:28N 49°17' W 122°58'0 0.0
2017-Oct-16 18:49N 49°17' W 122°58'0 0.0
2017-Oct-16 18:28N 49°17' W 122°58'0 0.0
2017-Oct-16 17:55N 49°17' W 122°58'0 0.0
2017-Oct-16 17:28N 49°17' W 122°58'0 0.0
2017-Oct-16 16:55N 49°17' W 122°58'0 0.0
2017-Oct-16 16:25N 49°17' W 122°58'0 0.0
2017-Oct-16 15:58N 49°17' W 122°58'0 0.0
2017-Oct-16 15:28N 49°17' W 122°58'0 0.0
2017-Oct-16 14:55N 49°17' W 122°58'0 0.0
2017-Oct-16 14:28N 49°17' W 122°58'0 0.0
2017-Oct-16 13:28N 49°17' W 122°58'0 0.0
2017-Oct-16 12:58N 49°17' W 122°58'0 0.0
2017-Oct-16 12:28N 49°17' W 122°58'0 0.0
2017-Oct-16 11:55N 49°17' W 122°58'0 0.0
2017-Oct-16 11:28N 49°17' W 122°58'0 0.0
2017-Oct-16 10:58N 49°17' W 122°58'0 0.0
2017-Oct-16 10:28N 49°17' W 122°58'0 0.0
2017-Oct-16 09:58N 49°17' W 122°58'0 0.0
2017-Oct-16 09:25N 49°17' W 122°58'0 0.0
2017-Oct-16 08:55N 49°17' W 122°58'0 0.0
2017-Oct-16 08:28N 49°17' W 122°58'0 0.0
2017-Oct-16 07:55N 49°17' W 122°58'0 0.0
2017-Oct-16 07:25N 49°17' W 122°58'0 0.0
2017-Oct-16 06:55N 49°17' W 122°58'0 0.0
2017-Oct-16 06:23N 49°17' W 122°58'0 0.0
2017-Oct-16 05:59N 49°17' W 122°58'0 0.0
2017-Oct-16 05:29N 49°17' W 122°58'0 0.0
2017-Oct-16 04:59N 49°17' W 122°58'0 0.0
2017-Oct-16 04:29N 49°17' W 122°58'0 0.0
2017-Oct-16 03:59N 49°17' W 122°58'0 0.0
2017-Oct-16 03:29N 49°17' W 122°58'0 0.0
2017-Oct-16 02:59N 49°17' W 122°58'0 0.0
2017-Oct-16 02:29N 49°17' W 122°58'0 0.0
2017-Oct-16 01:59N 49°17' W 122°58'0 0.0
2017-Oct-16 01:29N 49°17' W 122°58'0 0.0
2017-Oct-16 00:59N 49°17' W 122°58'0 0.0
2017-Oct-16 00:29N 49°17' W 122°58'0 0.0
2017-Oct-15 23:59N 49°17' W 122°58'0 0.0
2017-Oct-15 23:29N 49°17' W 122°58'0 0.0
2017-Oct-15 22:59N 49°17' W 122°58'0 0.0
2017-Oct-15 22:26N 49°17' W 122°58'0 0.0
2017-Oct-15 21:59N 49°17' W 122°58'0 0.0
2017-Oct-15 21:26N 49°17' W 122°58'0 0.0
2017-Oct-15 20:59N 49°17' W 122°58'0 0.0
2017-Oct-15 20:29N 49°17' W 122°58'0 0.0
2017-Oct-15 19:59N 49°17' W 122°58'0 0.0
2017-Oct-15 19:26N 49°17' W 122°58'0 0.0
2017-Oct-15 18:59N 49°17' W 122°58'0 0.0
2017-Oct-15 18:29N 49°17' W 122°58'0 0.0
2017-Oct-15 17:59N 49°17' W 122°58'0 0.0
2017-Oct-15 17:29N 49°17' W 122°58'0 0.0
2017-Oct-15 16:59N 49°17' W 122°58'0 0.0
2017-Oct-15 16:29N 49°17' W 122°58'0 0.0
2017-Oct-15 15:59N 49°17' W 122°58'0 0.0
2017-Oct-15 15:23N 49°17' W 122°58'0 0.0
2017-Oct-15 14:59N 49°17' W 122°58'1 0.8
2017-Oct-15 14:00N 49°18' W 122°57'0 0.1
2017-Oct-15 13:27N 49°18' W 122°57'0 0.0
2017-Oct-15 13:00N 49°18' W 122°57'0 0.0
2017-Oct-15 12:30N 49°18' W 122°57'0 0.0
2017-Oct-15 12:00N 49°18' W 122°57'0 0.0
2017-Oct-15 11:30N 49°18' W 122°57'0 0.0
2017-Oct-15 10:57N 49°18' W 122°57'0 0.0
2017-Oct-15 10:27N 49°18' W 122°57'0 0.0
2017-Oct-15 09:57N 49°18' W 122°57'0 0.0
2017-Oct-15 09:30N 49°18' W 122°57'0 0.0
2017-Oct-15 09:00N 49°18' W 122°57'0 0.0
2017-Oct-15 08:30N 49°18' W 122°57'0 0.0
2017-Oct-15 07:57N 49°18' W 122°57'0 0.0
2017-Oct-15 07:27N 49°18' W 122°57'0 0.1
2017-Oct-15 07:00N 49°18' W 122°57'0 0.0
2017-Oct-15 06:30N 49°18' W 122°57'0 0.0
2017-Oct-15 06:00N 49°18' W 122°57'0 0.1
2017-Oct-15 05:30N 49°18' W 122°57'0 0.0
2017-Oct-15 05:00N 49°18' W 122°57'0 0.0
2017-Oct-15 04:30N 49°18' W 122°57'0 0.0
2017-Oct-15 04:00N 49°18' W 122°57'0 0.0
2017-Oct-15 03:30N 49°18' W 122°57'0 0.0
2017-Oct-15 03:00N 49°18' W 122°57'0 0.0
2017-Oct-15 02:30N 49°18' W 122°57'0 0.0
2017-Oct-15 02:00N 49°18' W 122°57'0 0.0
2017-Oct-15 01:30N 49°18' W 122°57'0 0.0
2017-Oct-15 01:00N 49°18' W 122°57'0 0.0
2017-Oct-15 00:30N 49°18' W 122°57'0 0.0
2017-Oct-15 00:00N 49°18' W 122°57'0 0.0
2017-Oct-14 23:30N 49°18' W 122°57'0 0.0
2017-Oct-14 23:00N 49°18' W 122°57'0 0.0
2017-Oct-14 22:30N 49°18' W 122°57'0 0.0
2017-Oct-14 22:00N 49°18' W 122°57'0 0.1
2017-Oct-14 21:27N 49°18' W 122°57'0 0.1
2017-Oct-14 21:00N 49°18' W 122°57'0 0.1
2017-Oct-14 20:30N 49°18' W 122°57'0 0.1
2017-Oct-14 20:00N 49°18' W 122°57'0 0.1
2017-Oct-14 19:30N 49°18' W 122°57'0 0.0
2017-Oct-14 19:00N 49°18' W 122°57'0 0.0
2017-Oct-14 18:27N 49°18' W 122°57'0 0.1
2017-Oct-14 17:57N 49°18' W 122°57'0 0.1
2017-Oct-14 17:30N 49°18' W 122°57'0 0.1
2017-Oct-14 16:54N 49°18' W 122°57'0 0.2
2017-Oct-14 16:24N 49°18' W 122°57'0 0.1
2017-Oct-14 16:01N 49°18' W 122°57'1 2.9
2017-Oct-14 15:30N 49°18' W 122°59'3 6.4
2017-Oct-14 15:00N 49°18' W 123°04'2 3.8
2017-Oct-14 14:31N 49°18' W 123°07'0 0.8
2017-Oct-14 13:59N 49°19' W 123°07'0 0.0
2017-Oct-14 13:30N 49°19' W 123°07'0 0.0
2017-Oct-14 12:59N 49°19' W 123°07'0 0.0
2017-Oct-14 12:29N 49°19' W 123°07'0 0.0
2017-Oct-14 11:59N 49°19' W 123°07'0 0.0
2017-Oct-14 11:27N 49°19' W 123°07'0 0.0
2017-Oct-14 10:59N 49°19' W 123°07'0 0.0
2017-Oct-14 10:30N 49°19' W 123°07'0 0.0
2017-Oct-14 09:59N 49°19' W 123°07'0 0.0
2017-Oct-14 09:26N 49°19' W 123°07'0 0.0
2017-Oct-14 09:00N 49°19' W 123°07'0 0.0
2017-Oct-14 08:29N 49°19' W 123°07'0 0.0
2017-Oct-14 07:59N 49°19' W 123°07'0 0.1
2017-Oct-14 07:29N 49°19' W 123°07'0 0.1
2017-Oct-14 06:59N 49°19' W 123°07'0 0.0
2017-Oct-14 06:29N 49°19' W 123°07'0 0.0
2017-Oct-14 05:53N 49°19' W 123°07'0 0.0
2017-Oct-14 05:29N 49°19' W 123°07'0 0.0
2017-Oct-14 04:59N 49°19' W 123°07'0 0.0
2017-Oct-14 04:29N 49°19' W 123°07'0 0.0
2017-Oct-14 03:56N 49°19' W 123°07'0 0.0
2017-Oct-14 03:29N 49°19' W 123°07'  
Track history (hours):
 
Tides and Currents Weather Stations Pressure Air Temp Water Temp Dewpoint Dewpoint Depression Visibility Wind Speed Wind Dir Waves Ship Positions

Silver Hannah

Last reported at 2017-Oct-24 03:15 UTC. Time now 2017-Nov-23 09:20 UTC.
Position N 29°23' W 119°40'.
Warning: this ship's position is 30 days out of date.

Length 183 m; draft 11.3 m.

Type: Tanker. MMSI: 538005911.

Date/timePositionNaut miles runAvg speedWind from/ knotsBaromVisibWave heightAir tempDewpointWater temp
2017-Oct-24 03:15N 29°23' W 119°40'413.2
2017-Oct-24 02:54N 29°27' W 119°42'613.1
2017-Oct-24 02:25N 29°33' W 119°45'11612.7
2017-Oct-23 17:18N 31°21' W 120°33'3513.0
2017-Oct-23 14:39N 31°53' W 120°47'212.7
2017-Oct-23 14:30N 31°55' W 120°48'1813.3
2017-Oct-23 13:11N 32°11' W 120°55'213.2
2017-Oct-23 13:00N 32°14' W 120°56'713.4
2017-Oct-23 12:30N 32°20' W 120°59'713.1
2017-Oct-23 12:00N 32°26' W 121°02'612.9
2017-Oct-23 11:30N 32°32' W 121°05'713.3
2017-Oct-23 11:00N 32°38' W 121°07'713.1
2017-Oct-23 10:30N 32°44' W 121°10'713.0
2017-Oct-23 10:00N 32°50' W 121°13'713.4
2017-Oct-23 09:30N 32°57' W 121°16'713.5
2017-Oct-23 09:00N 33°03' W 121°19'713.2
2017-Oct-23 08:30N 33°09' W 121°21'713.2
2017-Oct-23 08:00N 33°15' W 121°24'713.3
2017-Oct-23 07:30N 33°22' W 121°27'713.5
2017-Oct-23 07:00N 33°28' W 121°30'713.3
2017-Oct-23 06:30N 33°34' W 121°33'713.2
2017-Oct-23 06:00N 33°40' W 121°36'713.4
2017-Oct-23 05:30N 33°46' W 121°38'713.2
2017-Oct-23 05:00N 33°53' W 121°41'613.1
2017-Oct-23 04:30N 33°59' W 121°44'713.1
2017-Oct-23 04:00N 34°05' W 121°47'712.8
2017-Oct-23 03:28N 34°11' W 121°50'612.6
2017-Oct-23 03:00N 34°17' W 121°52'713.2
2017-Oct-23 02:27N 34°24' W 121°56'613.4
2017-Oct-23 02:00N 34°29' W 121°58'713.2
2017-Oct-23 01:30N 34°35' W 122°01'713.4
2017-Oct-23 01:00N 34°42' W 122°04'713.5
2017-Oct-23 00:31N 34°48' W 122°07'713.3
2017-Oct-23 00:00N 34°54' W 122°10'1213.1
2017-Oct-22 23:04N 35°06' W 122°15'113.3
2017-Oct-22 22:59N 35°07' W 122°16'913.1
2017-Oct-22 22:17N 35°15' W 122°19'313.0
2017-Oct-22 22:01N 35°19' W 122°21'713.1
2017-Oct-22 21:30N 35°25' W 122°24'1713.3
2017-Oct-22 20:14N 35°40' W 122°31'313.4
2017-Oct-22 20:00N 35°43' W 122°33'713.7
2017-Oct-22 19:30N 35°50' W 122°36'6613.0
2017-Oct-22 14:27N 36°55' W 122°43'612.8
2017-Oct-22 13:58N 37°01' W 122°44'613.4
2017-Oct-22 13:30N 37°08' W 122°43'713.3
2017-Oct-22 13:00N 37°14' W 122°44'713.4
2017-Oct-22 12:30N 37°21' W 122°44'713.3
2017-Oct-22 12:00N 37°28' W 122°44'713.5
2017-Oct-22 11:30N 37°34' W 122°44'713.1
2017-Oct-22 11:00N 37°41' W 122°43'611.2
2017-Oct-22 10:30N 37°46' W 122°40'5 9.5
2017-Oct-22 10:00N 37°47' W 122°34'611.7
2017-Oct-22 09:30N 37°50' W 122°28'4 8.4
2017-Oct-22 09:00N 37°48' W 122°23'3 5.4
2017-Oct-22 08:30N 37°46' W 122°21'0 0.0
2017-Oct-22 07:59N 37°46' W 122°21'0 0.0
2017-Oct-22 07:29N 37°46' W 122°21'0 0.0
2017-Oct-22 06:59N 37°46' W 122°21'0 0.0
2017-Oct-22 06:29N 37°46' W 122°21'0 0.0
2017-Oct-22 05:59N 37°46' W 122°21'0 0.0
2017-Oct-22 05:29N 37°46' W 122°21'0 0.0
2017-Oct-22 04:59N 37°46' W 122°21'0 0.0
2017-Oct-22 04:29N 37°46' W 122°21'0 0.3
2017-Oct-22 03:59N 37°46' W 122°21'0 0.1
2017-Oct-22 03:29N 37°46' W 122°21'0 0.1
2017-Oct-22 02:59N 37°46' W 122°21'0 0.0
2017-Oct-22 02:29N 37°46' W 122°21'0 0.0
2017-Oct-22 01:59N 37°46' W 122°21'0 0.0
2017-Oct-22 01:29N 37°46' W 122°21'0 0.0
2017-Oct-22 00:59N 37°46' W 122°21'0 0.0
2017-Oct-22 00:29N 37°46' W 122°21'0 0.2
2017-Oct-22 00:00N 37°46' W 122°21'3 5.6
2017-Oct-21 23:30N 37°49' W 122°23'510.9
2017-Oct-21 23:00N 37°53' W 122°26'611.3
2017-Oct-21 22:30N 37°59' W 122°26'5 9.9
2017-Oct-21 22:00N 38°02' W 122°21'4 8.9
2017-Oct-21 21:30N 38°04' W 122°16'5 8.8
2017-Oct-21 20:56N 38°02' W 122°10'4 7.7
2017-Oct-21 20:28N 38°03' W 122°05'0 0.0
2017-Oct-20 07:25N 38°03' W 122°05'2 2.2
2017-Oct-20 06:39N 38°02' W 122°07'1 6.8
2017-Oct-20 06:31N 38°02' W 122°08'3 6.7
2017-Oct-20 05:59N 38°04' W 122°12'3 5.4
2017-Oct-20 05:31N 38°04' W 122°16'3 6.5
2017-Oct-20 05:00N 38°03' W 122°20'4 8.3
2017-Oct-20 04:30N 38°01' W 122°24'510.7
2017-Oct-20 04:00N 37°56' W 122°27'510.0
2017-Oct-20 03:30N 37°51' W 122°25'4 7.3
2017-Oct-20 03:01N 37°49' W 122°28'510.1
2017-Oct-20 02:31N 37°47' W 122°34'510.9
2017-Oct-20 02:01N 37°46' W 122°41'5 9.4
2017-Oct-20 01:29N 37°46' W 122°47'510.2
2017-Oct-20 01:01N 37°49' W 122°52'510.2
2017-Oct-20 00:31N 37°51' W 122°58'510.4
2017-Oct-20 00:00N 37°54' W 123°04'610.4
2017-Oct-19 23:28N 37°57' W 123°10'510.3
2017-Oct-19 23:01N 38°00' W 123°14'611.7
2017-Oct-19 22:30N 38°05' W 123°19'4 8.5
2017-Oct-19 22:01N 38°08' W 123°22'0 0.8
2017-Oct-19 21:30N 38°08' W 123°22'0 0.6
2017-Oct-19 21:01N 38°09' W 123°22'0 0.7
2017-Oct-19 20:31N 38°09' W 123°23'0 0.5
2017-Oct-19 20:01N 38°08' W 123°23'0 0.5
2017-Oct-19 19:30N 38°09' W 123°23'0 0.7
2017-Oct-19 19:00N 38°09' W 123°24'0 0.8
2017-Oct-19 18:31N 38°09' W 123°24'0 0.5
2017-Oct-19 18:01N 38°09' W 123°25'0 0.3
2017-Oct-19 17:31N 38°09' W 123°25'0 1.0
2017-Oct-19 17:01N 38°08' W 123°25'2 3.2
2017-Oct-19 16:30N 38°09' W 123°27'1 3.0
2017-Oct-19 16:01N 38°08' W 123°26'1 2.6
2017-Oct-19 15:31N 38°08' W 123°25'2 4.3
2017-Oct-19 15:00N 38°10' W 123°25'713.1
2017-Oct-19 14:30N 38°15' W 123°30'4 7.1
2017-Oct-19 14:00N 38°18' W 123°33'5 9.5
2017-Oct-19 13:31N 38°22' W 123°37'713.1
2017-Oct-19 13:01N 38°27' W 123°42'713.3
2017-Oct-19 12:31N 38°32' W 123°47'713.3
2017-Oct-19 12:00N 38°37' W 123°53'2113.1
2017-Oct-19 10:23N 38°53' W 124°10'5813.2
2017-Oct-19 05:58N 39°43' W 124°50'31912.3
2017-Oct-18 04:07N 45°00' W 125°20'110.7
2017-Oct-18 04:00N 45°02' W 125°20'613.1
2017-Oct-18 03:30N 45°08' W 125°20'713.1
2017-Oct-18 03:00N 45°15' W 125°20'712.9
2017-Oct-18 02:30N 45°21' W 125°20'913.4
2017-Oct-18 01:51N 45°30' W 125°20'513.3
2017-Oct-18 01:30N 45°35' W 125°20'712.8
2017-Oct-18 00:55N 45°42' W 125°20'612.8
2017-Oct-18 00:30N 45°47' W 125°20'612.9
2017-Oct-18 00:00N 45°54' W 125°20'913.0
2017-Oct-17 23:18N 46°03' W 125°20'413.2
2017-Oct-17 23:01N 46°07' W 125°20'713.0
2017-Oct-17 22:31N 46°13' W 125°20'713.1
2017-Oct-17 22:00N 46°20' W 125°20'612.9
2017-Oct-17 21:31N 46°26' W 125°20'713.2
2017-Oct-17 21:00N 46°33' W 125°20'713.5
2017-Oct-17 20:30N 46°40' W 125°20'713.4
2017-Oct-17 20:00N 46°46' W 125°20'713.4
2017-Oct-17 19:29N 46°53' W 125°20'713.7
2017-Oct-17 19:00N 46°60' W 125°20'7613.2
2017-Oct-17 13:16N 48°15' W 125°12'313.1
2017-Oct-17 13:00N 48°19' W 125°11'712.4
2017-Oct-17 12:29N 48°25' W 125°08'511.2
2017-Oct-17 12:00N 48°29' W 125°03'510.5
2017-Oct-17 11:30N 48°31' W 124°55'612.4
2017-Oct-17 11:00N 48°31' W 124°46'612.6
2017-Oct-17 10:30N 48°29' W 124°37'613.0
2017-Oct-17 10:00N 48°26' W 124°28'613.0
2017-Oct-17 09:30N 48°24' W 124°19'713.0
2017-Oct-17 09:00N 48°21' W 124°10'612.7
2017-Oct-17 08:30N 48°19' W 124°02'713.4
2017-Oct-17 08:00N 48°17' W 123°52'712.8
2017-Oct-17 07:27N 48°16' W 123°41'612.9
2017-Oct-17 07:00N 48°15' W 123°33'611.2
2017-Oct-17 06:30N 48°20' W 123°27'510.2
2017-Oct-17 06:00N 48°23' W 123°21'510.0
2017-Oct-17 05:31N 48°24' W 123°14'713.8
2017-Oct-17 05:00N 48°31' W 123°13'815.5
2017-Oct-17 04:30N 48°39' W 123°15'612.9
2017-Oct-17 04:00N 48°44' W 123°09'713.9
2017-Oct-17 03:30N 48°48' W 123°01'714.9
2017-Oct-17 03:00N 48°54' W 123°08'815.2
2017-Oct-17 02:30N 48°59' W 123°17'714.1
2017-Oct-17 02:00N 49°05' W 123°23'714.4
2017-Oct-17 01:30N 49°12' W 123°22'713.4
2017-Oct-17 01:00N 49°18' W 123°17'5 9.9
2017-Oct-17 00:30N 49°19' W 123°10'4 8.4
2017-Oct-17 00:00N 49°18' W 123°04'3 6.3
2017-Oct-16 23:30N 49°18' W 122°59'1 1.5
2017-Oct-16 23:00N 49°18' W 122°58'0 0.5
2017-Oct-16 22:25N 49°17' W 122°58'0 0.0
2017-Oct-16 21:58N 49°17' W 122°58'0 0.0
2017-Oct-16 21:25N 49°17' W 122°58'0 0.0
2017-Oct-16 20:52N 49°17' W 122°58'0 0.0
2017-Oct-16 20:19N 49°17' W 122°58'0 0.0
2017-Oct-16 19:58N 49°17' W 122°58'0 0.0
2017-Oct-16 19:28N 49°17' W 122°58'0 0.0
2017-Oct-16 18:49N 49°17' W 122°58'0 0.0
2017-Oct-16 18:28N 49°17' W 122°58'0 0.0
2017-Oct-16 17:55N 49°17' W 122°58'0 0.0
2017-Oct-16 17:28N 49°17' W 122°58'0 0.0
2017-Oct-16 16:55N 49°17' W 122°58'0 0.0
2017-Oct-16 16:25N 49°17' W 122°58'0 0.0
2017-Oct-16 15:58N 49°17' W 122°58'0 0.0
2017-Oct-16 15:28N 49°17' W 122°58'0 0.0
2017-Oct-16 14:55N 49°17' W 122°58'0 0.0
2017-Oct-16 14:28N 49°17' W 122°58'0 0.0
2017-Oct-16 13:28N 49°17' W 122°58'0 0.0
2017-Oct-16 12:58N 49°17' W 122°58'0 0.0
2017-Oct-16 12:28N 49°17' W 122°58'0 0.0
2017-Oct-16 11:55N 49°17' W 122°58'0 0.0
2017-Oct-16 11:28N 49°17' W 122°58'0 0.0
2017-Oct-16 10:58N 49°17' W 122°58'0 0.0
2017-Oct-16 10:28N 49°17' W 122°58'0 0.0
2017-Oct-16 09:58N 49°17' W 122°58'0 0.0
2017-Oct-16 09:25N 49°17' W 122°58'0 0.0
2017-Oct-16 08:55N 49°17' W 122°58'0 0.0
2017-Oct-16 08:28N 49°17' W 122°58'0 0.0
2017-Oct-16 07:55N 49°17' W 122°58'0 0.0
2017-Oct-16 07:25N 49°17' W 122°58'0 0.0
2017-Oct-16 06:55N 49°17' W 122°58'0 0.0
2017-Oct-16 06:23N 49°17' W 122°58'0 0.0
2017-Oct-16 05:59N 49°17' W 122°58'0 0.0
2017-Oct-16 05:29N 49°17' W 122°58'0 0.0
2017-Oct-16 04:59N 49°17' W 122°58'0 0.0
2017-Oct-16 04:29N 49°17' W 122°58'0 0.0
2017-Oct-16 03:59N 49°17' W 122°58'0 0.0
2017-Oct-16 03:29N 49°17' W 122°58'0 0.0
2017-Oct-16 02:59N 49°17' W 122°58'0 0.0
2017-Oct-16 02:29N 49°17' W 122°58'0 0.0
2017-Oct-16 01:59N 49°17' W 122°58'0 0.0
2017-Oct-16 01:29N 49°17' W 122°58'0 0.0
2017-Oct-16 00:59N 49°17' W 122°58'0 0.0
2017-Oct-16 00:29N 49°17' W 122°58'0 0.0
2017-Oct-15 23:59N 49°17' W 122°58'0 0.0
2017-Oct-15 23:29N 49°17' W 122°58'0 0.0
2017-Oct-15 22:59N 49°17' W 122°58'0 0.0
2017-Oct-15 22:26N 49°17' W 122°58'0 0.0
2017-Oct-15 21:59N 49°17' W 122°58'0 0.0
2017-Oct-15 21:26N 49°17' W 122°58'0 0.0
2017-Oct-15 20:59N 49°17' W 122°58'0 0.0
2017-Oct-15 20:29N 49°17' W 122°58'0 0.0
2017-Oct-15 19:59N 49°17' W 122°58'0 0.0
2017-Oct-15 19:26N 49°17' W 122°58'0 0.0
2017-Oct-15 18:59N 49°17' W 122°58'0 0.0
2017-Oct-15 18:29N 49°17' W 122°58'0 0.0
2017-Oct-15 17:59N 49°17' W 122°58'0 0.0
2017-Oct-15 17:29N 49°17' W 122°58'0 0.0
2017-Oct-15 16:59N 49°17' W 122°58'0 0.0
2017-Oct-15 16:29N 49°17' W 122°58'0 0.0
2017-Oct-15 15:59N 49°17' W 122°58'0 0.0
2017-Oct-15 15:23N 49°17' W 122°58'0 0.0
2017-Oct-15 14:59N 49°17' W 122°58'1 0.8
2017-Oct-15 14:00N 49°18' W 122°57'0 0.1
2017-Oct-15 13:27N 49°18' W 122°57'0 0.0
2017-Oct-15 13:00N 49°18' W 122°57'0 0.0
2017-Oct-15 12:30N 49°18' W 122°57'0 0.0
2017-Oct-15 12:00N 49°18' W 122°57'0 0.0
2017-Oct-15 11:30N 49°18' W 122°57'0 0.0
2017-Oct-15 10:57N 49°18' W 122°57'0 0.0
2017-Oct-15 10:27N 49°18' W 122°57'0 0.0
2017-Oct-15 09:57N 49°18' W 122°57'0 0.0
2017-Oct-15 09:30N 49°18' W 122°57'0 0.0
2017-Oct-15 09:00N 49°18' W 122°57'0 0.0
2017-Oct-15 08:30N 49°18' W 122°57'0 0.0
2017-Oct-15 07:57N 49°18' W 122°57'0 0.0
2017-Oct-15 07:27N 49°18' W 122°57'0 0.1
2017-Oct-15 07:00N 49°18' W 122°57'0 0.0
2017-Oct-15 06:30N 49°18' W 122°57'0 0.0
2017-Oct-15 06:00N 49°18' W 122°57'0 0.1
2017-Oct-15 05:30N 49°18' W 122°57'0 0.0
2017-Oct-15 05:00N 49°18' W 122°57'0 0.0
2017-Oct-15 04:30N 49°18' W 122°57'0 0.0
2017-Oct-15 04:00N 49°18' W 122°57'0 0.0
2017-Oct-15 03:30N 49°18' W 122°57'0 0.0
2017-Oct-15 03:00N 49°18' W 122°57'0 0.0
2017-Oct-15 02:30N 49°18' W 122°57'0 0.0
2017-Oct-15 02:00N 49°18' W 122°57'0 0.0
2017-Oct-15 01:30N 49°18' W 122°57'0 0.0
2017-Oct-15 01:00N 49°18' W 122°57'0 0.0
2017-Oct-15 00:30N 49°18' W 122°57'0 0.0
2017-Oct-15 00:00N 49°18' W 122°57'0 0.0
2017-Oct-14 23:30N 49°18' W 122°57'0 0.0
2017-Oct-14 23:00N 49°18' W 122°57'0 0.0
2017-Oct-14 22:30N 49°18' W 122°57'0 0.0
2017-Oct-14 22:00N 49°18' W 122°57'0 0.1
2017-Oct-14 21:27N 49°18' W 122°57'0 0.1
2017-Oct-14 21:00N 49°18' W 122°57'0 0.1
2017-Oct-14 20:30N 49°18' W 122°57'0 0.1
2017-Oct-14 20:00N 49°18' W 122°57'0 0.1
2017-Oct-14 19:30N 49°18' W 122°57'0 0.0
2017-Oct-14 19:00N 49°18' W 122°57'0 0.0
2017-Oct-14 18:27N 49°18' W 122°57'0 0.1
2017-Oct-14 17:57N 49°18' W 122°57'0 0.1
2017-Oct-14 17:30N 49°18' W 122°57'0 0.1
2017-Oct-14 16:54N 49°18' W 122°57'0 0.2
2017-Oct-14 16:24N 49°18' W 122°57'0 0.1
2017-Oct-14 16:01N 49°18' W 122°57'1 2.9
2017-Oct-14 15:30N 49°18' W 122°59'3 6.4
2017-Oct-14 15:00N 49°18' W 123°04'2 3.8
2017-Oct-14 14:31N 49°18' W 123°07'0 0.8
2017-Oct-14 13:59N 49°19' W 123°07'0 0.0
2017-Oct-14 13:30N 49°19' W 123°07'0 0.0
2017-Oct-14 12:59N 49°19' W 123°07'0 0.0
2017-Oct-14 12:29N 49°19' W 123°07'0 0.0
2017-Oct-14 11:59N 49°19' W 123°07'0 0.0
2017-Oct-14 11:27N 49°19' W 123°07'0 0.0
2017-Oct-14 10:59N 49°19' W 123°07'0 0.0
2017-Oct-14 10:30N 49°19' W 123°07'0 0.0
2017-Oct-14 09:59N 49°19' W 123°07'0 0.0
2017-Oct-14 09:26N 49°19' W 123°07'0 0.0
2017-Oct-14 09:00N 49°19' W 123°07'0 0.0
2017-Oct-14 08:29N 49°19' W 123°07'0 0.0
2017-Oct-14 07:59N 49°19' W 123°07'0 0.1
2017-Oct-14 07:29N 49°19' W 123°07'0 0.1
2017-Oct-14 06:59N 49°19' W 123°07'0 0.0
2017-Oct-14 06:29N 49°19' W 123°07'0 0.0
2017-Oct-14 05:53N 49°19' W 123°07'0 0.0
2017-Oct-14 05:29N 49°19' W 123°07'0 0.0
2017-Oct-14 04:59N 49°19' W 123°07'0 0.0
2017-Oct-14 04:29N 49°19' W 123°07'0 0.0
2017-Oct-14 03:56N 49°19' W 123°07'0 0.0
2017-Oct-14 03:29N 49°19' W 123°07'  

Dump ship's entire track history